createdAt,value
2023-08-30T00:02:32.070Z,1.58
2023-08-30T00:07:34.241Z,1.25
2023-08-30T00:12:36.164Z,1.35
2023-08-30T00:17:38.584Z,1.23
2023-08-30T00:22:40.975Z,1.45
2023-08-30T00:27:43.234Z,1.10
2023-08-30T00:32:46.832Z,1.58
2023-08-30T00:37:49.312Z,1.35
2023-08-30T00:42:51.687Z,1.05
2023-08-30T00:47:54.903Z,1.08
2023-08-30T00:52:57.035Z,1.70
2023-08-30T00:57:59.133Z,1.42
2023-08-30T01:03:01.715Z,0.88
2023-08-30T01:08:04.249Z,1.42
2023-08-30T01:13:10.508Z,1.10
2023-08-30T01:18:13.898Z,1.20
2023-08-30T01:23:41.620Z,0.70
2023-08-30T01:28:45.310Z,0.95
2023-08-30T01:33:47.604Z,0.85
2023-08-30T01:38:50.645Z,4.00
2023-08-30T01:43:54.084Z,0.70
2023-08-30T01:48:57.320Z,0.55
2023-08-30T01:53:59.286Z,1.42
2023-08-30T01:59:01.525Z,1.50
2023-08-30T02:04:03.761Z,1.10
2023-08-30T02:09:23.841Z,0.82
2023-08-30T02:14:27.875Z,1.15
2023-08-30T02:19:30.076Z,0.70
2023-08-30T02:24:32.217Z,0.80
2023-08-30T02:29:34.489Z,0.40
2023-08-30T02:34:37.102Z,0.60
2023-08-30T02:39:39.226Z,0.77
2023-08-30T02:44:42.287Z,0.55
2023-08-30T02:49:44.566Z,0.60
2023-08-30T02:54:46.785Z,0.80
2023-08-30T02:59:48.869Z,0.43
2023-08-30T03:04:51.219Z,0.50
2023-08-30T03:09:54.357Z,0.40
2023-08-30T03:14:56.756Z,0.65
2023-08-30T03:19:59.550Z,0.95
2023-08-30T03:25:04.484Z,0.70
2023-08-30T03:30:07.745Z,1.33
2023-08-30T03:40:13.414Z,1.23
2023-08-30T03:45:15.591Z,1.23
2023-08-30T03:50:17.957Z,0.82
2023-08-30T03:55:20.314Z,0.90
2023-08-30T04:00:22.453Z,0.95
2023-08-30T04:05:28.183Z,0.90
2023-08-30T04:10:39.454Z,0.82
2023-08-30T04:15:41.683Z,0.95
2023-08-30T04:20:46.592Z,0.87
2023-08-30T04:25:48.736Z,0.70
2023-08-30T04:30:54.991Z,0.43
2023-08-30T04:35:57.178Z,0.60
2023-08-30T04:41:00.907Z,1.17
2023-08-30T04:46:08.261Z,1.45
2023-08-30T04:51:10.791Z,0.50
2023-08-30T04:56:14.263Z,2.80
2023-08-30T05:01:17.160Z,1.23
2023-08-30T05:06:23.499Z,1.15
2023-08-30T05:11:25.710Z,1.35
2023-08-30T05:16:28.064Z,2.95
2023-08-30T05:21:30.800Z,3.58
2023-08-30T05:26:32.876Z,1.20
2023-08-30T05:31:35.326Z,3.40
2023-08-30T05:36:57.928Z,1.23
2023-08-30T05:42:11.518Z,1.63
2023-08-30T05:47:16.218Z,1.58
2023-08-30T05:52:19.395Z,3.80
2023-08-30T05:57:23.517Z,1.15
2023-08-30T06:07:27.997Z,5.75
2023-08-30T06:12:30.083Z,2.42
2023-08-30T06:17:32.516Z,2.30
2023-08-30T06:22:35.734Z,3.40
2023-08-30T06:27:44.648Z,1.70
2023-08-30T06:32:46.770Z,3.13
2023-08-30T06:37:48.773Z,1.10
2023-08-30T06:42:50.844Z,5.15
2023-08-30T06:47:56.025Z,0.73
2023-08-30T06:52:58.486Z,0.60
2023-08-30T06:58:00.935Z,1.30
2023-08-30T07:03:03.214Z,1.35
2023-08-30T07:08:05.517Z,1.73
2023-08-30T07:13:11.697Z,0.95
2023-08-30T07:18:14.179Z,1.60
2023-08-30T07:23:16.743Z,1.02
2023-08-30T07:28:19.069Z,0.98
2023-08-30T07:33:21.369Z,1.33
2023-08-30T07:38:23.862Z,0.63
2023-08-30T07:43:26.487Z,1.17
2023-08-30T07:48:28.566Z,1.00
2023-08-30T07:53:31.014Z,0.73
2023-08-30T07:58:33.177Z,1.13
2023-08-30T08:03:35.360Z,0.65
2023-08-30T08:08:37.596Z,0.80
2023-08-30T08:13:40.135Z,4.78
2023-08-30T08:18:42.419Z,8.75
2023-08-30T08:23:44.726Z,3.45
2023-08-30T08:28:47.051Z,2.28
2023-08-30T08:33:54.183Z,2.22
2023-08-30T08:38:56.323Z,0.98
2023-08-30T08:43:59.370Z,1.77
2023-08-30T08:49:06.169Z,1.38
2023-08-30T08:54:10.365Z,1.27
2023-08-30T09:04:14.771Z,2.80
2023-08-30T09:09:16.909Z,4.18
2023-08-30T09:14:20.091Z,8.50
2023-08-30T09:19:23.208Z,12.65
2023-08-30T09:24:26.083Z,5.53
2023-08-30T09:29:28.838Z,6.50
2023-08-30T09:34:31.030Z,4.35
2023-08-30T09:39:34.506Z,2.85
2023-08-30T09:44:36.934Z,3.43
2023-08-30T09:49:49.214Z,3.60
2023-08-30T09:54:52.503Z,1.73
2023-08-30T09:59:55.816Z,2.53
2023-08-30T10:04:58.290Z,1.10
2023-08-30T10:10:09.759Z,1.50
2023-08-30T10:15:12.581Z,1.10
2023-08-30T10:20:15.231Z,1.00
2023-08-30T10:25:21.789Z,2.33
2023-08-30T10:30:24.784Z,1.25
2023-08-30T10:35:27.091Z,1.17
2023-08-30T10:40:29.394Z,1.70
2023-08-30T10:45:31.879Z,1.13
2023-08-30T10:50:35.188Z,1.73
2023-08-30T10:55:37.734Z,1.67
2023-08-30T11:00:42.206Z,3.03
2023-08-30T11:05:44.319Z,2.20
2023-08-30T11:10:47.305Z,1.52
2023-08-30T11:15:51.820Z,1.33
2023-08-30T11:21:03.849Z,1.15
2023-08-30T11:26:06.269Z,1.10
2023-08-30T11:31:08.842Z,3.55
2023-08-30T11:36:11.011Z,4.30
2023-08-30T11:41:13.608Z,1.50
2023-08-30T11:46:16.243Z,1.48
2023-08-30T11:51:19.772Z,3.92
2023-08-30T11:56:22.021Z,1.30
2023-08-30T12:01:24.343Z,1.23
2023-08-30T12:06:26.759Z,1.58
2023-08-30T12:11:33.050Z,1.13
2023-08-30T12:16:35.318Z,1.33
2023-08-30T12:21:44.213Z,1.23
2023-08-30T12:26:46.334Z,1.25
2023-08-30T12:31:48.597Z,3.20
2023-08-30T12:36:50.624Z,1.05
2023-08-30T12:41:52.868Z,0.88
2023-08-30T12:46:55.024Z,2.60
2023-08-30T12:51:57.009Z,2.70
2023-08-30T12:56:59.246Z,0.75
2023-08-30T13:02:01.694Z,3.75
2023-08-30T13:07:04.022Z,1.08
2023-08-30T13:12:06.926Z,3.03
2023-08-30T13:17:10.644Z,0.75
2023-08-30T13:22:12.799Z,0.75
2023-08-30T13:27:14.874Z,1.45
2023-08-30T13:32:17.475Z,0.85
2023-08-30T13:37:19.672Z,0.90
2023-08-30T13:42:22.790Z,1.10
2023-08-30T13:47:25.083Z,1.90
2023-08-30T13:52:27.515Z,1.73
2023-08-30T13:57:29.702Z,0.98
2023-08-30T14:02:31.621Z,1.35
2023-08-30T14:07:33.594Z,1.33
2023-08-30T14:12:35.891Z,0.70
2023-08-30T14:17:37.875Z,2.83
2023-08-30T14:22:40.308Z,0.98
2023-08-30T14:27:42.434Z,2.33
2023-08-30T14:32:44.552Z,2.50
2023-08-30T14:37:46.667Z,1.40
2023-08-30T14:42:48.935Z,1.23
2023-08-30T14:47:51.049Z,1.33
2023-08-30T14:52:56.248Z,1.40
2023-08-30T14:57:58.403Z,1.35
2023-08-30T15:03:00.569Z,1.23
2023-08-30T15:08:03.644Z,1.60
2023-08-30T15:13:06.286Z,1.10
2023-08-30T15:18:09.877Z,1.02
2023-08-30T15:23:18.300Z,0.70
2023-08-30T15:28:20.529Z,0.98
2023-08-30T15:33:22.741Z,1.60
2023-08-30T15:38:24.911Z,3.10
2023-08-30T15:43:27.323Z,1.25
2023-08-30T15:48:29.317Z,2.20
2023-08-30T15:53:31.490Z,1.35
2023-08-30T15:58:33.764Z,0.80
2023-08-30T16:03:38.333Z,1.83
2023-08-30T16:08:40.706Z,2.45
2023-08-30T16:13:42.882Z,0.73
2023-08-30T16:18:45.180Z,1.35
2023-08-30T16:23:47.602Z,1.20
2023-08-30T16:28:49.651Z,0.90
2023-08-30T16:33:51.806Z,4.43
2023-08-30T16:38:53.899Z,1.33
2023-08-30T16:43:56.134Z,1.27
2023-08-30T16:48:58.737Z,2.70
2023-08-30T16:54:01.011Z,2.17
2023-08-30T16:59:03.352Z,3.15
2023-08-30T17:04:05.715Z,0.98
2023-08-30T17:09:07.866Z,4.38
2023-08-30T17:14:12.586Z,0.77
2023-08-30T17:19:14.890Z,3.83
2023-08-30T17:24:17.146Z,3.10
2023-08-30T17:29:19.710Z,6.72
2023-08-30T17:34:21.848Z,12.85
2023-08-30T17:39:25.487Z,13.82
2023-08-30T17:44:27.739Z,13.25
2023-08-30T17:49:29.857Z,8.95
2023-08-30T17:54:33.646Z,9.98
2023-08-30T17:59:36.555Z,10.02
2023-08-30T18:04:40.199Z,3.22
2023-08-30T18:09:42.407Z,2.73
2023-08-30T18:14:48.337Z,1.23
2023-08-30T18:19:50.656Z,2.50
2023-08-30T18:24:52.734Z,3.20
2023-08-30T18:29:54.961Z,3.22
2023-08-30T18:34:57.097Z,2.92
2023-08-30T18:40:00.205Z,3.30
2023-08-30T18:45:02.732Z,3.53
2023-08-30T18:50:05.254Z,2.10
2023-08-30T18:55:08.108Z,2.40
2023-08-30T19:00:11.964Z,1.20
2023-08-30T19:05:14.053Z,1.50
2023-08-30T19:10:16.108Z,3.17
2023-08-30T19:15:18.243Z,1.95
2023-08-30T19:20:20.295Z,1.35
2023-08-30T19:25:22.476Z,8.68
2023-08-30T19:30:27.681Z,1.30
2023-08-30T19:35:30.016Z,0.73
2023-08-30T19:40:32.126Z,2.92
2023-08-30T19:45:34.629Z,4.00
2023-08-30T19:50:37.315Z,2.80
2023-08-30T19:55:39.385Z,1.85
2023-08-30T20:00:41.460Z,2.83
2023-08-30T20:05:51.634Z,1.17
2023-08-30T20:10:53.653Z,4.30
2023-08-30T20:16:03.828Z,5.45
2023-08-30T20:21:12.724Z,2.47
2023-08-30T20:26:15.167Z,1.33
2023-08-30T20:31:17.529Z,2.08
2023-08-30T20:36:27.209Z,3.38
2023-08-30T20:41:33.520Z,1.88
2023-08-30T20:46:36.968Z,2.70
2023-08-30T20:51:39.157Z,1.53
2023-08-30T20:56:41.550Z,2.17
2023-08-30T21:01:43.806Z,1.05
2023-08-30T21:06:47.219Z,5.30
2023-08-30T21:11:49.642Z,1.53
2023-08-30T21:16:52.004Z,1.83
2023-08-30T21:21:54.541Z,2.15
2023-08-30T21:26:56.720Z,1.40
2023-08-30T21:31:58.924Z,2.05
2023-08-30T21:37:01.051Z,1.20
2023-08-30T21:42:03.645Z,1.70
2023-08-30T21:47:05.911Z,1.67
2023-08-30T21:52:08.093Z,1.88
2023-08-30T21:57:10.536Z,1.33
2023-08-30T22:02:12.709Z,1.95
2023-08-30T22:13:30.224Z,0.95
2023-08-30T22:18:32.724Z,1.45
2023-08-30T22:23:34.816Z,1.00
2023-08-30T22:28:36.902Z,0.90
2023-08-30T22:33:39.033Z,1.23
2023-08-30T22:38:41.107Z,0.93
2023-08-30T22:43:43.259Z,1.92
2023-08-30T22:48:45.772Z,1.08
2023-08-30T22:53:47.946Z,3.00
2023-08-30T22:58:51.524Z,1.33
2023-08-30T23:03:53.763Z,1.87
2023-08-30T23:08:56.009Z,1.88
2023-08-30T23:13:58.005Z,0.68
2023-08-30T23:19:00.961Z,1.10
2023-08-30T23:24:04.149Z,0.75
2023-08-30T23:29:09.006Z,1.33
2023-08-30T23:34:11.239Z,0.88
2023-08-30T23:39:16.527Z,1.95
2023-08-30T23:44:18.664Z,1.38
2023-08-30T23:49:20.990Z,1.52
2023-08-30T23:54:23.136Z,0.98
2023-08-30T23:59:25.145Z,0.90
